sensor_id;sensor_type;location;lat;lon;timestamp;pressure;altitude;pressure_sealevel;temperature;humidity
71043;BME280;58696;52.134;5.500;2022-09-03T00:02:08;101150.53;;;16.77;nan
71043;BME280;58696;52.134;5.500;2022-09-03T00:04:52;101154.06;;;16.75;nan
71043;BME280;58696;52.134;5.500;2022-09-03T00:07:31;101149.63;;;16.74;nan
71043;BME280;58696;52.134;5.500;2022-09-03T00:10:07;101149.69;;;16.69;nan
71043;BME280;58696;52.134;5.500;2022-09-03T00:12:40;101143.50;;;16.65;nan
71043;BME280;58696;52.134;5.500;2022-09-03T00:15:17;101147.94;;;16.62;nan
71043;BME280;58696;52.134;5.500;2022-09-03T00:17:54;101145.31;;;16.57;nan
71043;BME280;58696;52.134;5.500;2022-09-03T00:20:29;101149.72;;;16.53;nan
71043;BME280;58696;52.134;5.500;2022-09-03T00:23:02;101144.47;;;16.50;nan
71043;BME280;58696;52.134;5.500;2022-09-03T00:25:41;101145.34;;;16.48;nan
71043;BME280;58696;52.134;5.500;2022-09-03T00:28:22;101139.19;;;16.41;nan
71043;BME280;58696;52.134;5.500;2022-09-03T00:31:02;101134.81;;;16.38;nan
71043;BME280;58696;52.134;5.500;2022-09-03T00:33:32;101141.88;;;16.38;nan
71043;BME280;58696;52.134;5.500;2022-09-03T00:38:29;101133.06;;;16.36;nan
71043;BME280;58696;52.134;5.500;2022-09-03T00:41:16;101138.34;;;16.32;nan
71043;BME280;58696;52.134;5.500;2022-09-03T00:46:59;101139.22;;;16.28;nan
71043;BME280;58696;52.134;5.500;2022-09-03T00:49:41;101141.91;;;16.24;nan
71043;BME280;58696;52.134;5.500;2022-09-03T00:55:04;101133.97;;;16.19;nan
71043;BME280;58696;52.134;5.500;2022-09-03T00:57:58;101133.97;;;16.14;nan
71043;BME280;58696;52.134;5.500;2022-09-03T01:00:34;101137.50;;;16.08;nan
71043;BME280;58696;52.134;5.500;2022-09-03T01:03:22;101134.00;;;16.06;nan
71043;BME280;58696;52.134;5.500;2022-09-03T01:08:57;101138.38;;;16.03;nan
71043;BME280;58696;52.134;5.500;2022-09-03T01:14:37;101135.78;;;15.95;nan
71043;BME280;58696;52.134;5.500;2022-09-03T01:17:23;101137.50;;;15.93;nan
71043;BME280;58696;52.134;5.500;2022-09-03T01:31:57;101148.91;;;15.89;nan
71043;BME280;58696;52.134;5.500;2022-09-03T01:37:17;101151.56;;;15.75;nan
71043;BME280;58696;52.134;5.500;2022-09-03T01:43:08;101151.56;;;15.72;nan
71043;BME280;58696;52.134;5.500;2022-09-03T01:45:46;101145.41;;;15.71;nan
71043;BME280;58696;52.134;5.500;2022-09-03T02:04:26;101147.19;;;15.61;nan
71043;BME280;58696;52.134;5.500;2022-09-03T02:07:01;101145.41;;;15.60;nan
71043;BME280;58696;52.134;5.500;2022-09-03T02:09:28;101146.28;;;15.61;nan
71043;BME280;58696;52.134;5.500;2022-09-03T02:12:05;101144.53;;;15.60;nan
71043;BME280;58696;52.134;5.500;2022-09-03T02:14:34;101145.41;;;15.57;nan
71043;BME280;58696;52.134;5.500;2022-09-03T02:17:02;101142.78;;;15.57;nan
71043;BME280;58696;52.134;5.500;2022-09-03T02:19:30;101143.63;;;15.57;nan
71043;BME280;58696;52.134;5.500;2022-09-03T02:22:00;101143.63;;;15.54;nan
71043;BME280;58696;52.134;5.500;2022-09-03T02:24:27;101141.88;;;15.50;nan
71043;BME280;58696;52.134;5.500;2022-09-03T02:26:54;101144.50;;;15.47;nan
71043;BME280;58696;52.134;5.500;2022-09-03T02:29:22;101146.28;;;15.45;nan
71043;BME280;58696;52.134;5.500;2022-09-03T02:31:50;101149.78;;;15.41;nan
71043;BME280;58696;52.134;5.500;2022-09-03T02:34:16;101145.38;;;15.38;nan
71043;BME280;58696;52.134;5.500;2022-09-03T02:36:45;101144.50;;;15.35;nan
71043;BME280;58696;52.134;5.500;2022-09-03T02:39:14;101135.72;;;15.33;nan
71043;BME280;58696;52.134;5.500;2022-09-03T02:41:43;101139.22;;;15.28;nan
71043;BME280;58696;52.134;5.500;2022-09-03T02:44:29;101142.75;;;15.26;nan
71043;BME280;58696;52.134;5.500;2022-09-03T02:47:00;101140.09;;;15.24;nan
71043;BME280;58696;52.134;5.500;2022-09-03T02:49:28;101136.56;;;15.24;nan
71043;BME280;58696;52.134;5.500;2022-09-03T02:51:59;101140.09;;;15.21;nan
71043;BME280;58696;52.134;5.500;2022-09-03T02:54:27;101136.56;;;15.19;nan
71043;BME280;58696;52.134;5.500;2022-09-03T02:56:54;101126.91;;;15.16;nan
71043;BME280;58696;52.134;5.500;2022-09-03T02:59:21;101130.41;;;15.12;nan
71043;BME280;58696;52.134;5.500;2022-09-03T03:01:48;101131.28;;;15.08;nan
71043;BME280;58696;52.134;5.500;2022-09-03T03:04:18;101141.78;;;15.07;nan
71043;BME280;58696;52.134;5.500;2022-09-03T03:06:45;101131.25;;;15.05;nan
71043;BME280;58696;52.134;5.500;2022-09-03T03:09:13;101131.25;;;15.02;nan
71043;BME280;58696;52.134;5.500;2022-09-03T03:11:40;101126.84;;;14.99;nan
71043;BME280;58696;52.134;5.500;2022-09-03T03:14:09;101138.25;;;14.98;nan
71043;BME280;58696;52.134;5.500;2022-09-03T03:16:36;101132.09;;;14.96;nan
71043;BME280;58696;52.134;5.500;2022-09-03T03:19:05;101133.88;;;14.94;nan
71043;BME280;58696;52.134;5.500;2022-09-03T03:21:32;101127.72;;;14.90;nan
71043;BME280;58696;52.134;5.500;2022-09-03T03:24:00;101135.59;;;14.86;nan
71043;BME280;58696;52.134;5.500;2022-09-03T03:26:27;101122.41;;;14.83;nan
71043;BME280;58696;52.134;5.500;2022-09-03T03:29:00;101118.91;;;14.79;nan
71043;BME280;58696;52.134;5.500;2022-09-03T03:31:31;101124.16;;;14.77;nan
71043;BME280;58696;52.134;5.500;2022-09-03T03:34:03;101122.38;;;14.75;nan
71043;BME280;58696;52.134;5.500;2022-09-03T03:36:31;101123.22;;;14.72;nan
71043;BME280;58696;52.134;5.500;2022-09-03T03:38:59;101114.47;;;14.70;nan
71043;BME280;58696;52.134;5.500;2022-09-03T03:41:29;101128.47;;;14.71;nan
71043;BME280;58696;52.134;5.500;2022-09-03T03:44:02;101117.94;;;14.66;nan
71043;BME280;58696;52.134;5.500;2022-09-03T03:46:36;101124.09;;;14.65;nan
71043;BME280;58696;52.134;5.500;2022-09-03T03:49:06;101123.19;;;14.63;nan
71043;BME280;58696;52.134;5.500;2022-09-03T03:51:35;101124.06;;;14.60;nan
71043;BME280;58696;52.134;5.500;2022-09-03T03:54:04;101119.66;;;14.56;nan
71043;BME280;58696;52.134;5.500;2022-09-03T03:56:32;101113.53;;;14.57;nan
71043;BME280;58696;52.134;5.500;2022-09-03T03:58:59;101119.66;;;14.58;nan
71043;BME280;58696;52.134;5.500;2022-09-03T04:01:27;101117.91;;;14.53;nan
71043;BME280;58696;52.134;5.500;2022-09-03T04:03:55;101116.13;;;14.49;nan
71043;BME280;58696;52.134;5.500;2022-09-03T04:06:26;101124.88;;;14.48;nan
71043;BME280;58696;52.134;5.500;2022-09-03T04:08:55;101121.38;;;14.49;nan
71043;BME280;58696;52.134;5.500;2022-09-03T04:11:25;101121.38;;;14.49;nan
71043;BME280;58696;52.134;5.500;2022-09-03T04:13:52;101117.84;;;14.47;nan
71043;BME280;58696;52.134;5.500;2022-09-03T04:16:22;101123.09;;;14.44;nan
71043;BME280;58696;52.134;5.500;2022-09-03T04:18:49;101121.34;;;14.43;nan
71043;BME280;58696;52.134;5.500;2022-09-03T04:21:22;101127.47;;;14.45;nan
71043;BME280;58696;52.134;5.500;2022-09-03T04:23:51;101121.34;;;14.43;nan
71043;BME280;58696;52.134;5.500;2022-09-03T04:26:22;101118.72;;;14.45;nan
71043;BME280;58696;52.134;5.500;2022-09-03T04:28:49;101121.34;;;14.43;nan
71043;BME280;58696;52.134;5.500;2022-09-03T04:31:19;101128.34;;;14.44;nan
71043;BME280;58696;52.134;5.500;2022-09-03T04:33:49;101116.97;;;14.40;nan
71043;BME280;58696;52.134;5.500;2022-09-03T04:36:24;101111.69;;;14.39;nan
71043;BME280;58696;52.134;5.500;2022-09-03T04:38:52;101123.09;;;14.43;nan
71043;BME280;58696;52.134;5.500;2022-09-03T04:41:25;101118.72;;;14.43;nan
71043;BME280;58696;52.134;5.500;2022-09-03T04:43:54;101107.31;;;14.43;nan
71043;BME280;58696;52.134;5.500;2022-09-03T04:46:23;101109.94;;;14.43;nan
71043;BME280;58696;52.134;5.500;2022-09-03T04:48:52;101116.06;;;14.41;nan
71043;BME280;58696;52.134;5.500;2022-09-03T04:51:22;101112.53;;;14.39;nan
71043;BME280;58696;52.134;5.500;2022-09-03T04:53:55;101114.28;;;14.36;nan
71043;BME280;58696;52.134;5.500;2022-09-03T04:56:28;101117.81;;;14.35;nan
71043;BME280;58696;52.134;5.500;2022-09-03T04:58:57;101122.16;;;14.34;nan
71043;BME280;58696;52.134;5.500;2022-09-03T05:01:27;101123.91;;;14.35;nan
71043;BME280;58696;52.134;5.500;2022-09-03T05:03:55;101116.91;;;14.34;nan
71043;BME280;58696;52.134;5.500;2022-09-03T05:06:22;101117.81;;;14.36;nan
71043;BME280;58696;52.134;5.500;2022-09-03T05:08:52;101123.91;;;14.35;nan
71043;BME280;58696;52.134;5.500;2022-09-03T05:11:24;101121.28;;;14.35;nan
71043;BME280;58696;52.134;5.500;2022-09-03T05:13:53;101128.31;;;14.35;nan
71043;BME280;58696;52.134;5.500;2022-09-03T05:16:21;101128.31;;;14.35;nan
71043;BME280;58696;52.134;5.500;2022-09-03T05:18:54;101125.69;;;14.36;nan
71043;BME280;58696;52.134;5.500;2022-09-03T05:21:24;101123.09;;;14.38;nan
71043;BME280;58696;52.134;5.500;2022-09-03T05:23:52;101120.44;;;14.38;nan
71043;BME280;58696;52.134;5.500;2022-09-03T05:26:24;101127.47;;;14.39;nan
71043;BME280;58696;52.134;5.500;2022-09-03T05:28:55;101125.69;;;14.41;nan
71043;BME280;58696;52.134;5.500;2022-09-03T05:31:29;101117.84;;;14.44;nan
71043;BME280;58696;52.134;5.500;2022-09-03T05:34:02;101117.84;;;14.47;nan
71043;BME280;58696;52.134;5.500;2022-09-03T05:36:32;101110.84;;;14.52;nan
71043;BME280;58696;52.134;5.500;2022-09-03T05:39:00;101108.25;;;14.56;nan
71043;BME280;58696;52.134;5.500;2022-09-03T05:41:28;101110.88;;;14.56;nan
71043;BME280;58696;52.134;5.500;2022-09-03T05:43:55;101113.53;;;14.57;nan
71043;BME280;58696;52.134;5.500;2022-09-03T05:46:34;101117.88;;;14.57;nan
71043;BME280;58696;52.134;5.500;2022-09-03T05:49:05;101110.00;;;14.58;nan
71043;BME280;58696;52.134;5.500;2022-09-03T05:51:33;101115.25;;;14.57;nan
71043;BME280;58696;52.134;5.500;2022-09-03T05:54:04;101114.41;;;14.58;nan
71043;BME280;58696;52.134;5.500;2022-09-03T05:56:32;101114.41;;;14.59;nan
71043;BME280;58696;52.134;5.500;2022-09-03T05:59:03;101118.81;;;14.60;nan
71043;BME280;58696;52.134;5.500;2022-09-03T06:01:34;101125.84;;;14.64;nan
71043;BME280;58696;52.134;5.500;2022-09-03T06:04:11;101128.47;;;14.66;nan
71043;BME280;58696;52.134;5.500;2022-09-03T06:06:41;101123.22;;;14.69;nan
71043;BME280;58696;52.134;5.500;2022-09-03T06:09:16;101129.38;;;14.74;nan
71043;BME280;58696;52.134;5.500;2022-09-03T06:11:47;101120.66;;;14.80;nan
71043;BME280;58696;52.134;5.500;2022-09-03T06:14:15;101125.06;;;14.86;nan
71043;BME280;58696;52.134;5.500;2022-09-03T06:16:45;101128.59;;;14.91;nan
71043;BME280;58696;52.134;5.500;2022-09-03T06:19:15;101130.38;;;14.98;nan
71043;BME280;58696;52.134;5.500;2022-09-03T06:21:45;101131.25;;;15.05;nan
71043;BME280;58696;52.134;5.500;2022-09-03T06:24:13;101126.00;;;15.10;nan
71043;BME280;58696;52.134;5.500;2022-09-03T06:26:41;101126.03;;;15.16;nan
71043;BME280;58696;52.134;5.500;2022-09-03T06:29:08;101139.19;;;15.22;nan
71043;BME280;58696;52.134;5.500;2022-09-03T06:31:37;101130.44;;;15.28;nan
71043;BME280;58696;52.134;5.500;2022-09-03T06:34:05;101120.78;;;15.35;nan
71043;BME280;58696;52.134;5.500;2022-09-03T06:36:34;101130.44;;;15.40;nan
71043;BME280;58696;52.134;5.500;2022-09-03T06:39:03;101124.31;;;15.46;nan
71043;BME280;58696;52.134;5.500;2022-09-03T06:41:30;101116.44;;;15.52;nan
71043;BME280;58696;52.134;5.500;2022-09-03T06:44:03;101115.56;;;15.58;nan
71043;BME280;58696;52.134;5.500;2022-09-03T06:46:34;101119.06;;;15.65;nan
71043;BME280;58696;52.134;5.500;2022-09-03T06:49:04;101126.09;;;15.71;nan
71043;BME280;58696;52.134;5.500;2022-09-03T06:51:33;101112.03;;;15.79;nan
71043;BME280;58696;52.134;5.500;2022-09-03T06:54:06;101125.19;;;15.87;nan
71043;BME280;58696;52.134;5.500;2022-09-03T06:56:35;101120.81;;;15.95;nan
71043;BME280;58696;52.134;5.500;2022-09-03T06:59:13;101125.22;;;16.04;nan
71043;BME280;58696;52.134;5.500;2022-09-03T07:01:42;101119.91;;;16.14;nan
71043;BME280;58696;52.134;5.500;2022-09-03T07:04:12;101130.47;;;16.23;nan
71043;BME280;58696;52.134;5.500;2022-09-03T07:06:41;101121.66;;;16.33;nan
71043;BME280;58696;52.134;5.500;2022-09-03T07:09:10;101124.25;;;16.44;nan
71043;BME280;58696;52.134;5.500;2022-09-03T07:11:40;101129.47;;;16.54;nan
71043;BME280;58696;52.134;5.500;2022-09-03T07:14:13;101130.31;;;16.64;nan
71043;BME280;58696;52.134;5.500;2022-09-03T07:16:40;101132.06;;;16.74;nan
71043;BME280;58696;52.134;5.500;2022-09-03T07:19:09;101136.38;;;16.86;nan
71043;BME280;58696;52.134;5.500;2022-09-03T07:21:36;101127.53;;;16.98;nan
71043;BME280;58696;52.134;5.500;2022-09-03T07:24:06;101131.03;;;17.09;nan
71043;BME280;58696;52.134;5.500;2022-09-03T07:26:35;101128.28;;;17.23;nan
71043;BME280;58696;52.134;5.500;2022-09-03T07:29:04;101133.44;;;17.45;nan
71043;BME280;58696;52.134;5.500;2022-09-03T07:31:33;101133.22;;;17.72;nan
71043;BME280;58696;52.134;5.500;2022-09-03T07:34:03;101133.91;;;18.77;nan
71043;BME280;58696;52.134;5.500;2022-09-03T07:36:36;101121.44;;;20.50;nan
71043;BME280;58696;52.134;5.500;2022-09-03T07:39:04;101128.00;;;21.55;nan
71043;BME280;58696;52.134;5.500;2022-09-03T07:41:31;101120.19;;;21.83;nan
71043;BME280;58696;52.134;5.500;2022-09-03T07:44:01;101126.72;;;23.00;nan
71043;BME280;58696;52.134;5.500;2022-09-03T07:46:35;101124.03;;;24.11;nan
71043;BME280;58696;52.134;5.500;2022-09-03T07:49:04;101129.28;;;25.10;nan
71043;BME280;58696;52.134;5.500;2022-09-03T07:51:37;101120.66;;;25.69;nan
71043;BME280;58696;52.134;5.500;2022-09-03T07:54:09;60759.91;;;107.05;100.00
71043;BME280;58696;52.134;5.500;2022-09-03T07:56:38;101129.56;;;26.72;nan
71043;BME280;58696;52.134;5.500;2022-09-03T07:59:08;101128.69;;;27.47;nan
71043;BME280;58696;52.134;5.500;2022-09-03T08:01:37;101127.72;;;27.30;nan
71043;BME280;58696;52.134;5.500;2022-09-03T08:04:06;101133.97;;;27.12;nan
71043;BME280;58696;52.134;5.500;2022-09-03T08:06:37;101136.88;;;27.07;nan
71043;BME280;58696;52.134;5.500;2022-09-03T08:09:07;101132.50;;;26.85;nan
71043;BME280;58696;52.134;5.500;2022-09-03T08:11:41;101128.13;;;26.44;nan
71043;BME280;58696;52.134;5.500;2022-09-03T08:14:10;101131.72;;;26.24;nan
71043;BME280;58696;52.134;5.500;2022-09-03T08:16:45;101132.56;;;26.45;nan
71043;BME280;58696;52.134;5.500;2022-09-03T08:19:16;101127.50;;;26.18;nan
71043;BME280;58696;52.134;5.500;2022-09-03T08:21:46;101122.88;;;26.01;nan
71043;BME280;58696;52.134;5.500;2022-09-03T08:24:15;101126.16;;;25.87;nan
71043;BME280;58696;52.134;5.500;2022-09-03T08:26:43;101125.97;;;25.91;nan
71043;BME280;58696;52.134;5.500;2022-09-03T08:29:18;101127.28;;;26.02;nan
71043;BME280;58696;52.134;5.500;2022-09-03T08:31:45;101127.88;;;26.08;nan
71043;BME280;58696;52.134;5.500;2022-09-03T08:34:12;101132.06;;;25.74;nan
71043;BME280;58696;52.134;5.500;2022-09-03T08:36:40;101126.53;;;25.77;nan
71043;BME280;58696;52.134;5.500;2022-09-03T08:39:08;101136.75;;;25.90;nan
71043;BME280;58696;52.134;5.500;2022-09-03T08:44:46;101130.16;;;26.39;nan
71043;BME280;58696;52.134;5.500;2022-09-03T08:52:38;101135.19;;;26.85;nan
71043;BME280;58696;52.134;5.500;2022-09-03T08:57:53;101135.34;;;26.82;nan
71043;BME280;58696;52.134;5.500;2022-09-03T09:06:37;101135.28;;;27.57;nan
71043;BME280;58696;52.134;5.500;2022-09-03T09:12:15;101137.66;;;26.90;nan
71043;BME280;58696;52.134;5.500;2022-09-03T09:17:27;101132.59;;;26.83;nan
71043;BME280;58696;52.134;5.500;2022-09-03T09:22:45;101129.75;;;26.67;nan
71043;BME280;58696;52.134;5.500;2022-09-03T09:25:23;101126.69;;;26.75;nan
71043;BME280;58696;52.134;5.500;2022-09-03T09:28:02;101124.19;;;26.72;nan
71043;BME280;58696;52.134;5.500;2022-09-03T09:30:31;101129.13;;;26.62;nan
71043;BME280;58696;52.134;5.500;2022-09-03T09:33:01;101135.69;;;26.74;nan
71043;BME280;58696;52.134;5.500;2022-09-03T09:35:28;101129.13;;;26.62;nan
71043;BME280;58696;52.134;5.500;2022-09-03T09:37:57;101121.34;;;26.56;nan
71043;BME280;58696;52.134;5.500;2022-09-03T09:40:31;101126.16;;;26.28;nan
71043;BME280;58696;52.134;5.500;2022-09-03T09:43:10;101124.28;;;26.30;nan
71043;BME280;58696;52.134;5.500;2022-09-03T09:45:39;101125.25;;;26.49;nan
71043;BME280;58696;52.134;5.500;2022-09-03T09:48:20;101128.75;;;26.51;nan
71043;BME280;58696;52.134;5.500;2022-09-03T09:51:29;101126.63;;;26.57;nan
71043;BME280;58696;52.134;5.500;2022-09-03T09:54:18;101128.56;;;26.54;nan
71043;BME280;58696;52.134;5.500;2022-09-03T09:57:04;101121.00;;;26.64;nan
71043;BME280;58696;52.134;5.500;2022-09-03T09:59:32;101127.88;;;26.69;nan
71043;BME280;58696;52.134;5.500;2022-09-03T10:02:23;101124.69;;;26.80;nan
71043;BME280;58696;52.134;5.500;2022-09-03T10:05:00;101120.03;;;26.84;nan
71043;BME280;58696;52.134;5.500;2022-09-03T10:07:39;101125.13;;;26.90;nan
71043;BME280;58696;52.134;5.500;2022-09-03T10:10:14;101118.75;;;26.93;nan
71043;BME280;58696;52.134;5.500;2022-09-03T10:12:58;101123.59;;;27.04;nan
71043;BME280;58696;52.134;5.500;2022-09-03T10:15:36;101116.84;;;27.14;nan
71043;BME280;58696;52.134;5.500;2022-09-03T10:18:41;101118.84;;;27.28;nan
71043;BME280;58696;52.134;5.500;2022-09-03T10:21:14;101113.81;;;27.40;nan
71043;BME280;58696;52.134;5.500;2022-09-03T10:23:55;101106.66;;;27.40;nan
71043;BME280;58696;52.134;5.500;2022-09-03T10:26:24;101108.19;;;27.64;nan
71043;BME280;58696;52.134;5.500;2022-09-03T10:29:02;101104.09;;;27.74;nan
71043;BME280;58696;52.134;5.500;2022-09-03T10:34:33;101106.13;;;27.69;nan
71043;BME280;58696;52.134;5.500;2022-09-03T10:43:50;101105.06;;;28.07;nan
71043;BME280;58696;52.134;5.500;2022-09-03T10:46:25;101098.25;;;28.17;nan
71043;BME280;58696;52.134;5.500;2022-09-03T10:51:26;101092.13;;;28.31;nan
71043;BME280;58696;52.134;5.500;2022-09-03T11:05:11;101088.88;;;28.58;nan
71043;BME280;58696;52.134;5.500;2022-09-03T11:07:47;101092.44;;;28.59;nan
71043;BME280;58696;52.134;5.500;2022-09-03T11:10:31;101090.19;;;28.67;nan
71043;BME280;58696;52.134;5.500;2022-09-03T11:15:53;101091.34;;;28.95;nan
71043;BME280;58696;52.134;5.500;2022-09-03T11:18:43;101084.41;;;29.07;nan
71043;BME280;58696;52.134;5.500;2022-09-03T11:21:15;101092.34;;;29.25;nan
71043;BME280;58696;52.134;5.500;2022-09-03T11:23:46;101077.28;;;29.37;nan
71043;BME280;58696;52.134;5.500;2022-09-03T11:26:17;101090.03;;;29.49;nan
71043;BME280;58696;52.134;5.500;2022-09-03T11:28:59;101085.06;;;29.58;nan
71043;BME280;58696;52.134;5.500;2022-09-03T11:34:30;101081.38;;;29.44;nan
71043;BME280;58696;52.134;5.500;2022-09-03T11:37:25;101076.69;;;29.32;nan
71043;BME280;58696;52.134;5.500;2022-09-03T11:40:19;101085.06;;;29.27;nan
71043;BME280;58696;52.134;5.500;2022-09-03T11:42:47;101078.63;;;29.13;nan
71043;BME280;58696;52.134;5.500;2022-09-03T11:47:55;101066.16;;;28.80;nan
71043;BME280;58696;52.134;5.500;2022-09-03T11:50:28;101065.13;;;28.83;nan
71043;BME280;58696;52.134;5.500;2022-09-03T11:53:10;101066.59;;;28.88;nan
71043;BME280;58696;52.134;5.500;2022-09-03T11:55:53;101068.06;;;28.78;nan
71043;BME280;58696;52.134;5.500;2022-09-03T11:58:24;101062.34;;;28.68;nan
71043;BME280;58696;52.134;5.500;2022-09-03T12:00:55;101059.84;;;28.97;nan
71043;BME280;58696;52.134;5.500;2022-09-03T12:03:37;101056.69;;;29.05;nan
71043;BME280;58696;52.134;5.500;2022-09-03T12:06:15;101055.94;;;29.03;nan
71043;BME280;58696;52.134;5.500;2022-09-03T12:12:26;101064.78;;;29.05;nan
71043;BME280;58696;52.134;5.500;2022-09-03T12:17:31;101058.91;;;29.29;nan
71043;BME280;58696;52.134;5.500;2022-09-03T12:20:00;101052.97;;;29.38;nan
71043;BME280;58696;52.134;5.500;2022-09-03T12:22:29;101060.50;;;29.48;nan
71043;BME280;58696;52.134;5.500;2022-09-03T12:25:10;101063.94;;;29.35;nan
71043;BME280;58696;52.134;5.500;2022-09-03T12:27:39;101060.34;;;29.35;nan
71043;BME280;58696;52.134;5.500;2022-09-03T12:30:17;101060.91;;;29.25;nan
71043;BME280;58696;52.134;5.500;2022-09-03T12:32:46;101066.63;;;29.35;nan
71043;BME280;58696;52.134;5.500;2022-09-03T12:35:22;101068.16;;;29.39;nan
71043;BME280;58696;52.134;5.500;2022-09-03T12:38:12;101061.72;;;29.58;nan
71043;BME280;58696;52.134;5.500;2022-09-03T12:40:43;101065.19;;;29.75;nan
71043;BME280;58696;52.134;5.500;2022-09-03T12:43:31;101055.59;;;30.00;nan
71043;BME280;58696;52.134;5.500;2022-09-03T12:46:13;101068.72;;;30.21;nan
71043;BME280;58696;52.134;5.500;2022-09-03T12:48:51;101065.53;;;30.28;nan
71043;BME280;58696;52.134;5.500;2022-09-03T12:51:42;101060.53;;;30.22;nan
71043;BME280;58696;52.134;5.500;2022-09-03T12:54:14;101065.34;;;30.32;nan
71043;BME280;58696;52.134;5.500;2022-09-03T12:56:45;101074.44;;;30.43;nan
71043;BME280;58696;52.134;5.500;2022-09-03T12:59:18;101061.19;;;30.40;nan
71043;BME280;58696;52.134;5.500;2022-09-03T13:01:56;101066.34;;;30.58;nan
71043;BME280;58696;52.134;5.500;2022-09-03T13:04:32;101064.22;;;30.63;nan
71043;BME280;58696;52.134;5.500;2022-09-03T13:07:13;101060.50;;;30.37;nan
71043;BME280;58696;52.134;5.500;2022-09-03T13:09:46;101063.31;;;30.21;nan
71043;BME280;58696;52.134;5.500;2022-09-03T13:12:23;101055.34;;;30.19;nan
71043;BME280;58696;52.134;5.500;2022-09-03T13:14:53;101053.66;;;30.31;nan
71043;BME280;58696;52.134;5.500;2022-09-03T13:17:29;101062.31;;;30.51;nan
71043;BME280;58696;52.134;5.500;2022-09-03T13:25:34;101052.31;;;30.53;nan
71043;BME280;58696;52.134;5.500;2022-09-03T13:28:26;101058.00;;;30.34;nan
71043;BME280;58696;52.134;5.500;2022-09-03T13:34:15;101055.34;;;30.19;nan
71043;BME280;58696;52.134;5.500;2022-09-03T13:37:24;101059.44;;;30.10;nan
71043;BME280;58696;52.134;5.500;2022-09-03T13:42:21;101060.13;;;30.28;nan
71043;BME280;58696;52.134;5.500;2022-09-03T13:44:55;101062.22;;;30.38;nan
71043;BME280;58696;52.134;5.500;2022-09-03T13:47:33;101056.19;;;30.20;nan
71043;BME280;58696;52.134;5.500;2022-09-03T13:50:18;101061.16;;;30.11;nan
71043;BME280;58696;52.134;5.500;2022-09-03T13:53:03;101051.94;;;29.86;nan
71043;BME280;58696;52.134;5.500;2022-09-03T13:55:44;101052.00;;;29.70;nan
71043;BME280;58696;52.134;5.500;2022-09-03T13:58:36;101054.00;;;29.36;nan
71043;BME280;58696;52.134;5.500;2022-09-03T14:01:24;101045.13;;;29.19;nan
71043;BME280;58696;52.134;5.500;2022-09-03T14:03:56;101048.13;;;28.98;nan
71043;BME280;58696;52.134;5.500;2022-09-03T14:17:40;101052.06;;;28.27;nan
71043;BME280;58696;52.134;5.500;2022-09-03T14:20:20;101056.72;;;28.07;nan
71043;BME280;58696;52.134;5.500;2022-09-03T14:25:24;101049.25;;;27.78;nan
71043;BME280;58696;52.134;5.500;2022-09-03T14:28:10;101049.50;;;27.73;nan
71043;BME280;58696;52.134;5.500;2022-09-03T14:30:48;101050.84;;;27.65;nan
71043;BME280;58696;52.134;5.500;2022-09-03T14:36:26;101053.28;;;27.34;nan
71043;BME280;58696;52.134;5.500;2022-09-03T14:39:33;101050.50;;;27.18;nan
71043;BME280;58696;52.134;5.500;2022-09-03T14:45:23;101046.22;;;27.14;nan
71043;BME280;58696;52.134;5.500;2022-09-03T14:53:11;101054.28;;;27.14;nan
71043;BME280;58696;52.134;5.500;2022-09-03T14:56:04;101050.22;;;27.05;nan
71043;BME280;58696;52.134;5.500;2022-09-03T15:01:28;101048.44;;;27.05;nan
71043;BME280;58696;52.134;5.500;2022-09-03T15:04:11;101053.66;;;27.08;nan
71043;BME280;58696;52.134;5.500;2022-09-03T15:09:44;101060.44;;;27.16;nan
71043;BME280;58696;52.134;5.500;2022-09-03T15:12:23;101052.31;;;27.17;nan
71043;BME280;58696;52.134;5.500;2022-09-03T15:14:56;101059.50;;;27.17;nan
71043;BME280;58696;52.134;5.500;2022-09-03T15:20:34;101051.50;;;27.15;nan
71043;BME280;58696;52.134;5.500;2022-09-03T15:26:20;101048.84;;;27.15;nan
71043;BME280;58696;52.134;5.500;2022-09-03T15:37:09;101054.53;;;27.09;nan
71043;BME280;58696;52.134;5.500;2022-09-03T15:39:42;101059.00;;;27.08;nan
71043;BME280;58696;52.134;5.500;2022-09-03T15:42:25;101061.78;;;27.07;nan
71043;BME280;58696;52.134;5.500;2022-09-03T15:45:06;101055.69;;;27.03;nan
71043;BME280;58696;52.134;5.500;2022-09-03T15:50:34;101059.38;;;27.01;nan
71043;BME280;58696;52.134;5.500;2022-09-03T15:56:14;101059.75;;;26.93;nan
71043;BME280;58696;52.134;5.500;2022-09-03T16:01:27;101056.41;;;26.88;nan
71043;BME280;58696;52.134;5.500;2022-09-03T16:14:45;101066.00;;;26.74;nan
71043;BME280;58696;52.134;5.500;2022-09-03T16:17:37;101058.97;;;26.71;nan
71043;BME280;58696;52.134;5.500;2022-09-03T16:20:13;101062.66;;;26.69;nan
71043;BME280;58696;52.134;5.500;2022-09-03T16:23:00;101065.56;;;26.64;nan
71043;BME280;58696;52.134;5.500;2022-09-03T16:28:25;101062.44;;;26.54;nan
71043;BME280;58696;52.134;5.500;2022-09-03T16:36:46;101071.72;;;26.47;nan
71043;BME280;58696;52.134;5.500;2022-09-03T16:39:54;101070.00;;;26.46;nan
71043;BME280;58696;52.134;5.500;2022-09-03T16:45:18;101070.44;;;26.37;nan
71043;BME280;58696;52.134;5.500;2022-09-03T16:51:27;101068.25;;;26.24;nan
71043;BME280;58696;52.134;5.500;2022-09-03T17:00:14;101064.75;;;26.03;nan
71043;BME280;58696;52.134;5.500;2022-09-03T17:05:37;101065.31;;;25.90;nan
71043;BME280;58696;52.134;5.500;2022-09-03T17:08:26;101064.00;;;25.80;nan
71043;BME280;58696;52.134;5.500;2022-09-03T17:19:46;101067.16;;;25.47;nan
71043;BME280;58696;52.134;5.500;2022-09-03T17:25:16;101075.75;;;25.33;nan
71043;BME280;58696;52.134;5.500;2022-09-03T17:28:02;101078.78;;;25.25;nan
71043;BME280;58696;52.134;5.500;2022-09-03T17:30:40;101080.97;;;25.15;nan